Time;durP1;ratioP1;P1;durP2;ratioP2;P2;SDS_P1;SDS_P2;PMS_P1;PMS_P2;Temp;Humidity;BMP_temperature;BMP_pressure;BME280_temperature;BME280_humidity;BME280_pressure;Samples;Min_cycle;Max_cycle;Signal;HPM_P1;HPM_P2
2021/06/05 00:01:34;;;;;;;3.02;1.67;;;;;;;11.85;68.16;98461.32;1750161;82;21038;-67
2021/06/05 00:04:01;;;;;;;2.40;1.67;;;;;;;11.83;67.43;98451.98;1748755;82;21096;-66
2021/06/05 00:06:29;;;;;;;4.03;2.30;;;;;;;11.76;68.93;98456.94;1749736;82;21125;-66
2021/06/05 00:08:56;;;;;;;4.03;1.92;;;;;;;11.69;68.93;98452.39;1750022;82;21022;-65
2021/06/05 00:11:28;;;;;;;2.90;2.10;;;;;;;11.62;68.92;98446.92;1706286;84;21069;-66
2021/06/05 00:13:59;;;;;;;2.98;1.80;;;;;;;11.59;68.70;98448.51;1749997;82;20987;-65
2021/06/05 00:16:34;;;;;;;1.87;1.55;;;;;;;11.56;69.63;98449.23;1750055;82;21050;-65
2021/06/05 00:19:02;;;;;;;3.47;1.40;;;;;;;11.53;68.58;98443.84;1716364;82;21073;-68
2021/06/05 00:21:28;;;;;;;2.95;1.90;;;;;;;11.51;67.85;98443.16;1716851;83;21539;-66
2021/06/05 00:23:56;;;;;;;3.10;1.70;;;;;;;11.45;69.32;98439.79;1716655;83;21466;-69
2021/06/05 00:26:25;;;;;;;4.28;1.70;;;;;;;11.44;68.83;98438.97;1716395;83;21133;-66
2021/06/05 00:28:52;;;;;;;3.95;1.77;;;;;;;11.39;70.30;98444.25;1716764;83;21050;-65
2021/06/05 00:31:19;;;;;;;5.55;1.82;;;;;;;11.40;68.27;98441.97;1716206;83;21078;-63
2021/06/05 00:33:47;;;;;;;2.75;1.57;;;;;;;11.40;67.69;98438.89;1716669;83;21458;-64
2021/06/05 00:36:14;;;;;;;3.17;1.57;;;;;;;11.38;68.64;98444.73;1708269;82;21007;-64
2021/06/05 00:38:42;;;;;;;2.37;1.27;;;;;;;11.35;69.25;98438.98;1703282;84;21026;-64
2021/06/05 00:41:13;;;;;;;2.52;1.77;;;;;;;11.33;68.72;98441.70;1703090;84;21535;-65
2021/06/05 00:43:48;;;;;;;2.60;1.52;;;;;;;11.32;68.34;98437.95;1703192;84;21034;-65
2021/06/05 00:46:19;;;;;;;1.92;1.45;;;;;;;11.29;70.02;98439.50;1703913;83;21522;-65
2021/06/05 00:48:47;;;;;;;3.25;1.98;;;;;;;11.28;68.85;98439.98;1703161;84;21046;-64
2021/06/05 00:51:18;;;;;;;2.20;1.60;;;;;;;11.26;69.57;98443.20;1702699;84;21083;-63
2021/06/05 00:53:46;;;;;;;3.52;1.75;;;;;;;11.23;70.15;98443.48;1702652;84;21137;-64
2021/06/05 00:56:17;;;;;;;2.25;1.60;;;;;;;11.17;70.59;98441.88;1703192;84;21023;-65
2021/06/05 00:58:45;;;;;;;3.25;1.42;;;;;;;11.15;70.20;98437.31;1703223;83;21059;-65
2021/06/05 01:01:17;;;;;;;3.60;1.82;;;;;;;11.14;69.76;98440.38;1703972;84;21062;-65
2021/06/05 01:03:46;;;;;;;4.50;1.82;;;;;;;11.11;69.58;98440.66;1703197;84;21077;-67
2021/06/05 01:06:30;;;;;;;2.30;1.52;;;;;;;11.09;69.55;98442.55;1703936;83;21031;-66
2021/06/05 01:09:35;;;;;;;2.70;1.72;;;;;;;11.06;67.99;98438.10;1703561;84;21527;-64
2021/06/05 01:12:14;;;;;;;3.87;1.40;;;;;;;11.05;69.16;98435.98;1703402;83;21081;-65
2021/06/05 01:14:48;;;;;;;3.55;1.57;;;;;;;11.01;70.16;98435.10;1703271;83;21054;-67
2021/06/05 01:17:27;;;;;;;2.42;1.60;;;;;;;10.97;70.80;98433.73;1702644;84;21166;-66
2021/06/05 01:20:05;;;;;;;2.62;1.75;;;;;;;10.93;70.91;98432.67;1681976;84;21539;-65
2021/06/05 01:26:20;;;;;;;3.90;1.87;;;;;;;10.90;70.95;98432.94;1650194;85;21117;-65
2021/06/05 01:29:02;;;;;;;3.50;1.98;;;;;;;10.91;70.64;98429.87;1680462;85;21081;-67
2021/06/05 01:31:37;;;;;;;2.65;1.72;;;;;;;10.90;70.77;98423.84;1680707;84;21066;-64
2021/06/05 01:34:05;;;;;;;3.15;1.77;;;;;;;10.90;69.69;98423.84;1680631;85;21149;-66
2021/06/05 01:36:37;;;;;;;2.50;1.42;;;;;;;10.90;70.64;98423.02;1681398;85;21581;-65
2021/06/05 01:39:08;;;;;;;5.33;1.70;;;;;;;10.91;70.03;98422.91;1680635;85;21038;-65
2021/06/05 01:41:39;;;;;;;2.85;1.60;;;;;;;10.91;70.59;98419.00;1680810;85;21509;-65
2021/06/05 01:44:09;;;;;;;3.20;1.52;;;;;;;10.93;69.94;98422.78;1680563;85;21565;-65
2021/06/05 01:46:43;;;;;;;1.80;1.52;;;;;;;10.94;70.09;98420.50;1680646;84;21042;-65
2021/06/05 01:49:11;;;;;;;2.83;1.62;;;;;;;10.95;69.90;98424.75;1680676;85;21134;-66
2021/06/05 01:51:44;;;;;;;2.05;1.62;;;;;;;10.96;69.47;98421.20;1680785;84;21582;-66
2021/06/05 01:54:37;;;;;;;2.37;1.27;;;;;;;10.99;69.48;98423.53;1680373;84;21082;-65
2021/06/05 01:57:10;;;;;;;2.40;1.75;;;;;;;10.98;69.54;98430.97;1680951;85;21043;-65
2021/06/05 01:59:46;;;;;;;4.05;1.90;;;;;;;11.00;69.92;98423.05;1678598;85;21082;-65
2021/06/05 02:02:15;;;;;;;5.67;1.45;;;;;;;11.01;69.77;98419.00;1680884;85;21141;-65
2021/06/05 02:04:43;;;;;;;2.67;1.40;;;;;;;11.02;68.95;98419.83;1680914;85;21206;-66
2021/06/05 02:07:12;;;;;;;2.15;1.10;;;;;;;10.99;69.61;98414.91;1680666;85;21097;-65
2021/06/05 02:09:39;;;;;;;2.67;1.25;;;;;;;10.97;69.32;98414.23;1680714;85;21038;-65
2021/06/05 02:12:22;;;;;;;3.90;1.65;;;;;;;10.96;69.58;98418.61;1679841;85;21058;-65
2021/06/05 02:14:59;;;;;;;2.20;1.55;;;;;;;10.96;69.76;98419.91;1677571;85;21031;-66
2021/06/05 02:17:29;;;;;;;2.00;1.20;;;;;;;10.95;69.47;98410.46;1679765;84;21062;-65
2021/06/05 02:20:03;;;;;;;3.05;0.88;;;;;;;10.98;69.45;98414.08;1681593;84;21105;-65
2021/06/05 02:22:41;;;;;;;2.45;1.17;;;;;;;10.97;69.16;98416.84;1680743;83;21090;-66
2021/06/05 02:25:12;;;;;;;1.57;1.17;;;;;;;10.91;69.68;98412.51;1688618;85;21070;-66
2021/06/05 02:27:42;;;;;;;1.67;1.20;;;;;;;10.93;69.47;98417.59;1691088;85;21061;-65
2021/06/05 02:30:15;;;;;;;2.42;1.57;;;;;;;10.93;69.44;98404.59;1689822;83;21085;-66
2021/06/05 02:32:43;;;;;;;4.60;1.70;;;;;;;10.90;69.56;98408.26;1690994;85;21037;-66
2021/06/05 02:35:17;;;;;;;3.12;1.47;;;;;;;10.88;69.33;98407.59;1690792;85;21065;-65
2021/06/05 02:37:48;;;;;;;1.67;1.27;;;;;;;10.88;69.15;98409.36;1690057;84;21602;-65
2021/06/05 02:40:21;;;;;;;3.67;1.45;;;;;;;10.87;69.19;98405.94;1690831;85;21064;-65
2021/06/05 02:42:49;;;;;;;2.35;1.50;;;;;;;10.83;69.50;98403.26;1690641;85;21177;-65
2021/06/05 02:45:27;;;;;;;3.65;1.85;;;;;;;10.78;69.56;98405.42;1690807;85;21021;-65
2021/06/05 02:48:00;;;;;;;2.30;1.57;;;;;;;10.76;70.12;98406.52;1693749;83;21045;-65
2021/06/05 02:50:40;;;;;;;2.95;1.32;;;;;;;10.75;69.51;98410.89;1690844;85;21053;-67
2021/06/05 02:53:09;;;;;;;4.67;1.60;;;;;;;10.71;69.95;98399.59;1690315;82;21130;-65
2021/06/05 02:55:36;;;;;;;1.62;1.27;;;;;;;10.65;69.99;98400.14;1690697;83;21021;-65
2021/06/05 02:58:06;;;;;;;4.15;1.32;;;;;;;10.65;69.37;98400.97;1690691;85;21152;-66
2021/06/05 03:00:39;;;;;;;2.27;1.47;;;;;;;10.62;70.46;98395.22;1690749;83;21022;-64
2021/06/05 03:03:11;;;;;;;4.03;1.85;;;;;;;10.61;70.47;98394.86;1690895;84;21030;-65
2021/06/05 03:05:39;;;;;;;2.42;1.27;;;;;;;10.59;70.50;98392.39;1690789;85;21030;-66
2021/06/05 03:08:16;;;;;;;2.33;1.37;;;;;;;10.59;69.71;98390.27;1690686;85;21065;-66
2021/06/05 03:10:43;;;;;;;3.55;1.70;;;;;;;10.60;69.93;98390.61;1690838;85;21097;-64
2021/06/05 03:13:11;;;;;;;1.87;1.47;;;;;;;10.61;69.55;98398.28;1691061;85;21144;-66
2021/06/05 03:15:40;;;;;;;1.67;1.10;;;;;;;10.62;69.71;98392.11;1691012;85;21030;-65
2021/06/05 03:18:08;;;;;;;2.55;1.52;;;;;;;10.64;69.63;98393.30;1690450;85;21560;-66
2021/06/05 03:20:38;;;;;;;2.42;1.82;;;;;;;10.66;69.99;98389.59;1690628;85;21121;-65
2021/06/05 03:23:07;;;;;;;4.00;1.60;;;;;;;10.68;69.72;98393.37;1690694;83;21122;-65
2021/06/05 03:25:34;;;;;;;3.95;1.75;;;;;;;10.69;69.85;98384.63;1683455;85;21145;-65
2021/06/05 03:28:04;;;;;;;1.82;1.30;;;;;;;10.72;69.43;98389.56;1680566;84;21094;-65
2021/06/05 03:30:33;;;;;;;2.27;1.37;;;;;;;10.70;70.04;98385.78;1659705;85;21110;-66
2021/06/05 03:33:00;;;;;;;2.40;1.70;;;;;;;10.76;69.29;98385.27;1680776;85;21034;-65
2021/06/05 03:35:29;;;;;;;2.98;1.55;;;;;;;10.80;68.49;98387.95;1680656;85;21483;-65
2021/06/05 03:37:58;;;;;;;3.55;1.45;;;;;;;10.85;67.45;98386.25;1681146;84;21118;-70
2021/06/05 03:40:30;;;;;;;2.05;1.30;;;;;;;10.88;69.14;98389.88;1680889;85;21043;-65
2021/06/05 03:42:58;;;;;;;2.20;1.55;;;;;;;10.89;69.07;98389.72;1680765;85;21065;-65
2021/06/05 03:45:26;;;;;;;3.47;1.60;;;;;;;10.92;68.89;98389.47;1680807;85;21110;-65
2021/06/05 03:47:55;;;;;;;2.95;1.70;;;;;;;10.94;68.75;98392.75;1680783;85;21523;-65
2021/06/05 03:50:28;;;;;;;20.55;9.68;;;;;;;10.94;68.96;98388.84;1680783;85;21163;-65
2021/06/05 03:52:56;;;;;;;7.35;3.55;;;;;;;11.00;69.51;98392.70;1659429;85;21070;-66
2021/06/05 03:55:24;;;;;;;12.10;5.95;;;;;;;11.03;69.06;98391.59;1680837;85;21046;-65
2021/06/05 03:57:52;;;;;;;23.20;9.03;;;;;;;11.07;69.09;98399.00;1680643;85;21131;-66
2021/06/05 04:00:24;;;;;;;4.37;2.90;;;;;;;11.11;68.79;98401.67;1681033;85;21066;-68
2021/06/05 04:02:51;;;;;;;3.95;2.10;;;;;;;11.16;69.54;98401.27;1680864;85;21074;-66
2021/06/05 04:05:19;;;;;;;4.80;1.60;;;;;;;11.21;69.21;98397.28;1680735;85;21070;-66
2021/06/05 04:07:46;;;;;;;3.12;1.70;;;;;;;11.28;68.68;98403.58;1680391;85;21157;-67
2021/06/05 04:10:14;;;;;;;2.50;1.95;;;;;;;11.35;69.05;98404.70;1688317;84;21126;-64
2021/06/05 04:12:41;;;;;;;2.70;1.85;;;;;;;11.39;68.66;98398.27;1680476;85;21145;-67
2021/06/05 04:15:31;;;;;;;4.78;1.62;;;;;;;11.46;68.33;98388.61;1680800;85;21035;-65
2021/06/05 04:18:14;;;;;;;2.22;1.42;;;;;;;11.50;67.94;98391.27;1692931;85;21105;-68
2021/06/05 04:20:44;;;;;;;2.42;1.42;;;;;;;11.55;67.95;98392.98;1694551;85;21034;-68
2021/06/05 04:23:13;;;;;;;3.17;1.62;;;;;;;11.62;67.71;98390.17;1692959;84;21026;-64
2021/06/05 04:25:41;;;;;;;2.00;1.52;;;;;;;11.67;67.62;98383.58;1692729;85;21498;-66
2021/06/05 04:28:12;;;;;;;3.98;1.60;;;;;;;11.79;67.18;98383.80;1692658;83;21062;-65
2021/06/05 04:30:41;;;;;;;2.95;1.95;;;;;;;11.86;66.60;98384.08;1692797;83;21502;-64
2021/06/05 04:33:12;;;;;;;2.75;1.82;;;;;;;11.92;66.48;98377.00;1692822;85;21057;-65
2021/06/05 04:35:39;;;;;;;2.58;1.42;;;;;;;12.00;66.80;98378.89;1692862;83;21108;-66
2021/06/05 04:38:08;;;;;;;5.70;2.22;;;;;;;12.07;66.52;98375.58;1692743;84;21109;-66
2021/06/05 04:40:39;;;;;;;3.95;2.05;;;;;;;12.16;66.45;98381.24;1692807;83;21116;-65
2021/06/05 04:43:07;;;;;;;2.55;1.60;;;;;;;12.24;65.72;98380.53;1692992;85;21537;-66
2021/06/05 04:45:35;;;;;;;5.58;1.70;;;;;;;12.37;65.62;98383.13;1692822;85;21050;-66
2021/06/05 04:48:02;;;;;;;4.42;1.82;;;;;;;12.50;65.49;98378.08;1692907;84;21041;-65
2021/06/05 04:50:32;;;;;;;3.72;1.65;;;;;;;12.62;64.69;98376.92;1692800;85;21010;-64
2021/06/05 04:53:00;;;;;;;2.80;1.75;;;;;;;12.75;64.62;98378.72;1692785;84;21168;-67
2021/06/05 04:55:28;;;;;;;2.98;1.55;;;;;;;12.87;64.14;98381.45;1693030;83;21033;-64
2021/06/05 04:57:56;;;;;;;2.58;1.47;;;;;;;13.01;64.27;98382.72;1692762;85;21155;-65
2021/06/05 05:00:31;;;;;;;1.55;1.05;;;;;;;13.09;63.60;98371.08;1692891;85;21049;-65
2021/06/05 05:02:59;;;;;;;1.85;1.60;;;;;;;13.09;63.05;98368.47;1692756;85;21058;-65
2021/06/05 05:05:26;;;;;;;2.20;1.77;;;;;;;13.11;63.14;98371.80;1692464;85;21033;-65
2021/06/05 05:07:54;;;;;;;2.72;2.17;;;;;;;13.13;63.09;98370.66;1692883;84;21023;-64
2021/06/05 05:10:27;;;;;;;2.22;1.10;;;;;;;13.24;63.29;98369.61;1693077;84;21022;-65
2021/06/05 05:12:54;;;;;;;3.40;1.75;;;;;;;13.28;62.61;98367.05;1692623;83;21046;-68
2021/06/05 05:15:22;;;;;;;12.18;2.05;;;;;;;13.35;62.31;98369.86;1692743;85;21447;-68
2021/06/05 05:17:50;;;;;;;2.27;1.20;;;;;;;13.41;62.22;98367.98;1688199;84;21562;-68
2021/06/05 05:20:23;;;;;;;2.20;1.40;;;;;;;13.50;61.69;98372.30;1688407;85;21059;-68
2021/06/05 05:22:50;;;;;;;2.72;1.67;;;;;;;13.55;61.41;98364.34;1688787;85;21078;-64
2021/06/05 05:25:17;;;;;;;2.40;1.62;;;;;;;13.66;61.44;98363.27;1689195;84;21027;-68
2021/06/05 05:27:44;;;;;;;2.90;1.55;;;;;;;13.78;61.67;98355.52;1688581;85;21522;-68
2021/06/05 05:30:16;;;;;;;2.47;1.42;;;;;;;13.92;61.35;98354.98;1689491;84;21574;-64
2021/06/05 05:32:43;;;;;;;4.37;1.72;;;;;;;14.06;61.18;98354.40;1688895;85;21090;-65
2021/06/05 05:35:12;;;;;;;3.33;1.67;;;;;;;14.19;60.21;98353.50;1688326;85;21093;-66
2021/06/05 05:37:39;;;;;;;3.87;2.05;;;;;;;14.26;59.51;98357.13;1688613;85;21038;-67
2021/06/05 05:40:08;;;;;;;2.22;1.65;;;;;;;14.43;59.50;98352.83;1689012;84;21086;-67
2021/06/05 05:42:35;;;;;;;2.85;1.90;;;;;;;14.56;59.31;98357.10;1689225;85;21050;-65
2021/06/05 05:45:05;;;;;;;2.42;1.70;;;;;;;14.70;58.28;98353.91;1652970;87;21039;-65
2021/06/05 05:47:32;;;;;;;3.62;1.87;;;;;;;14.84;58.37;98350.33;1653273;86;21098;-64
2021/06/05 05:49:59;;;;;;;2.72;1.80;;;;;;;14.96;58.20;98356.89;1653241;86;21542;-64
2021/06/05 05:52:26;;;;;;;5.00;2.08;;;;;;;15.08;56.91;98354.30;1675414;85;20971;-64
2021/06/05 05:54:53;;;;;;;18.65;9.10;;;;;;;15.21;55.95;98352.04;1678510;85;21491;-65
2021/06/05 05:57:20;;;;;;;12.13;6.67;;;;;;;15.37;55.98;98358.56;1720330;83;21038;-62
2021/06/05 05:59:47;;;;;;;12.93;7.08;;;;;;;15.50;56.04;98356.31;1720382;83;21055;-62
2021/06/05 06:02:14;;;;;;;7.55;4.15;;;;;;;15.62;56.51;98356.31;1687473;83;21066;-62
2021/06/05 06:04:41;;;;;;;7.22;3.62;;;;;;;15.73;57.17;98358.26;1719245;82;21070;-62
2021/06/05 06:07:08;;;;;;;6.05;3.35;;;;;;;15.81;57.18;98355.63;1719185;82;21116;-62
2021/06/05 06:09:35;;;;;;;9.43;3.77;;;;;;;15.85;57.14;98362.17;1720138;83;21609;-63
2021/06/05 06:12:03;;;;;;;4.25;2.77;;;;;;;16.01;57.13;98359.53;1719547;83;21088;-64
2021/06/05 06:14:29;;;;;;;7.30;3.30;;;;;;;16.15;56.30;98357.52;1719006;83;21546;-63
2021/06/05 06:16:56;;;;;;;6.75;3.00;;;;;;;16.30;56.11;98351.91;1703950;83;21046;-63
2021/06/05 06:19:23;;;;;;;4.83;2.30;;;;;;;16.47;55.97;98351.35;1683841;85;21218;-63
2021/06/05 06:21:52;;;;;;;9.20;2.92;;;;;;;16.53;53.98;98350.20;1684045;85;21077;-63
2021/06/05 06:24:19;;;;;;;6.50;3.05;;;;;;;16.61;53.59;98345.44;1683973;85;21038;-63
2021/06/05 06:26:46;;;;;;;8.25;2.90;;;;;;;16.73;53.78;98348.50;1683801;85;21011;-63
2021/06/05 06:29:15;;;;;;;3.37;2.30;;;;;;;16.80;53.62;98342.88;1684142;85;21105;-63
2021/06/05 06:31:44;;;;;;;8.60;2.80;;;;;;;16.94;52.69;98342.13;1684225;85;21053;-63
2021/06/05 06:34:12;;;;;;;3.05;2.30;;;;;;;17.02;52.41;98338.97;1684348;85;21037;-63
2021/06/05 06:36:42;;;;;;;4.00;2.58;;;;;;;17.18;52.08;98334.59;1684325;85;21117;-63
2021/06/05 06:39:12;;;;;;;4.08;2.60;;;;;;;17.28;51.55;98325.48;1684440;85;21014;-62
2021/06/05 06:41:39;;;;;;;4.62;2.60;;;;;;;17.59;52.12;98329.88;1684355;85;21474;-63
2021/06/05 06:44:07;;;;;;;4.20;2.20;;;;;;;17.88;51.64;98320.72;1684462;85;21034;-63
2021/06/05 06:46:47;;;;;;;4.85;2.33;;;;;;;18.09;50.13;98322.64;1684194;85;21085;-63
2021/06/05 06:49:17;;;;;;;3.37;1.95;;;;;;;18.16;50.78;98316.47;1684288;85;21034;-63
2021/06/05 06:51:46;;;;;;;4.15;2.12;;;;;;;18.22;49.57;98323.62;1684276;85;21551;-62
2021/06/05 06:54:14;;;;;;;4.95;2.58;;;;;;;18.19;49.03;98321.36;1684496;85;21025;-63
2021/06/05 06:56:43;;;;;;;4.03;1.90;;;;;;;18.24;49.45;98323.45;1684208;85;21037;-63
2021/06/05 06:59:11;;;;;;;4.05;2.52;;;;;;;18.23;48.96;98327.06;1684371;85;21041;-62
2021/06/05 07:01:38;;;;;;;3.25;1.98;;;;;;;18.33;49.14;98320.52;1686063;85;21074;-62
2021/06/05 07:04:06;;;;;;;4.87;2.42;;;;;;;18.33;48.53;98317.08;1684145;85;21086;-62
2021/06/05 07:06:34;;;;;;;6.12;2.05;;;;;;;18.47;48.92;98314.45;1684099;85;21010;-62
2021/06/05 07:09:02;;;;;;;3.17;2.12;;;;;;;18.62;48.33;98309.69;1684322;85;21054;-62
2021/06/05 07:11:33;;;;;;;3.15;2.00;;;;;;;18.79;48.29;98309.79;1683965;84;21034;-64
2021/06/05 07:14:01;;;;;;;2.50;1.90;;;;;;;18.83;47.91;98307.88;1684322;85;21084;-63
2021/06/05 07:16:31;;;;;;;3.37;1.77;;;;;;;19.14;49.40;98301.03;1689001;83;21058;-63
2021/06/05 07:18:59;;;;;;;4.33;1.95;;;;;;;19.24;46.98;98300.70;1720622;83;21056;-62
2021/06/05 07:21:27;;;;;;;4.25;1.80;;;;;;;19.34;47.31;98296.73;1720443;83;21128;-62
2021/06/05 07:23:54;;;;;;;4.60;1.85;;;;;;;19.38;47.68;98295.35;1720578;82;21046;-62
2021/06/05 07:26:25;;;;;;;2.92;2.33;;;;;;;19.51;46.89;98297.31;1720528;83;21042;-62
2021/06/05 07:29:01;;;;;;;2.80;1.90;;;;;;;19.60;45.55;98288.27;1720280;83;21129;-64
2021/06/05 07:31:34;;;;;;;2.67;1.82;;;;;;;19.74;45.50;98285.21;1720644;82;21026;-62
2021/06/05 07:34:01;;;;;;;3.90;1.60;;;;;;;19.95;45.56;98284.34;1720463;83;21092;-63
2021/06/05 07:36:39;;;;;;;2.00;1.37;;;;;;;19.98;44.26;98279.48;1720521;83;21161;-63
2021/06/05 07:39:11;;;;;;;4.78;1.50;;;;;;;20.12;44.11;98279.04;1719356;83;21054;-65
2021/06/05 07:41:38;;;;;;;2.12;1.47;;;;;;;20.21;44.29;98276.05;1720526;83;21038;-63
2021/06/05 07:44:05;;;;;;;4.72;1.62;;;;;;;20.18;43.66;98272.50;1700127;83;21046;-64
2021/06/05 07:46:33;;;;;;;4.30;1.50;;;;;;;20.37;42.98;98272.30;1700060;83;21025;-65
2021/06/05 07:49:00;;;;;;;2.58;1.42;;;;;;;20.51;42.75;98268.69;1720385;82;21054;-63
2021/06/05 07:51:27;;;;;;;1.60;1.20;;;;;;;20.67;42.15;98265.70;1720499;82;21505;-63
2021/06/05 07:53:54;;;;;;;3.40;1.67;;;;;;;20.78;41.92;98261.65;1720746;83;21137;-64
2021/06/05 07:56:21;;;;;;;4.75;1.77;;;;;;;20.64;40.93;98256.05;1720505;83;21043;-62
2021/06/05 07:58:48;;;;;;;2.72;1.37;;;;;;;20.89;40.82;98258.45;1720618;82;21531;-62
2021/06/05 08:01:15;;;;;;;3.30;1.40;;;;;;;21.11;40.70;98252.47;1720528;82;21070;-62
2021/06/05 08:03:41;;;;;;;3.87;1.70;;;;;;;21.15;39.41;98249.26;1720083;83;21070;-62
2021/06/05 08:06:09;;;;;;;5.37;1.50;;;;;;;21.29;38.51;98252.20;1720512;82;21014;-62
2021/06/05 08:08:36;;;;;;;3.58;1.20;;;;;;;21.42;38.56;98256.67;1720506;82;21530;-63
2021/06/05 08:11:04;;;;;;;1.77;1.40;;;;;;;21.49;37.37;98246.09;1720434;83;21039;-64
2021/06/05 08:13:32;;;;;;;1.77;1.27;;;;;;;21.44;34.89;98243.27;1720368;83;21039;-62
2021/06/05 08:15:59;;;;;;;4.37;1.75;;;;;;;21.55;36.28;98243.96;1720522;83;21022;-62
2021/06/05 08:18:26;;;;;;;2.45;1.15;;;;;;;21.87;38.28;98240.42;1690254;83;21494;-63
2021/06/05 08:20:56;;;;;;;3.50;1.40;;;;;;;22.03;38.01;98235.22;1684430;85;21067;-62
2021/06/05 08:23:27;;;;;;;1.72;1.30;;;;;;;22.16;36.07;98228.06;1684173;85;21078;-64
2021/06/05 08:25:56;;;;;;;3.55;1.82;;;;;;;22.18;37.44;98223.36;1684447;85;21041;-64
2021/06/05 08:28:24;;;;;;;2.85;1.77;;;;;;;22.35;37.43;98215.77;1684155;85;21073;-62
2021/06/05 08:30:56;;;;;;;2.27;1.82;;;;;;;22.42;37.41;98221.01;1684390;85;21502;-61
2021/06/05 08:33:23;;;;;;;2.67;1.45;;;;;;;22.33;37.20;98212.53;1684367;85;21498;-63
2021/06/05 08:35:51;;;;;;;4.35;1.87;;;;;;;22.60;35.92;98216.66;1683995;85;21588;-64
2021/06/05 08:38:23;;;;;;;2.12;1.70;;;;;;;22.53;35.89;98224.30;1683959;85;21523;-63
2021/06/05 08:41:10;;;;;;;3.35;1.30;;;;;;;22.64;34.93;98221.80;1684079;85;21006;-63
2021/06/05 08:43:51;;;;;;;2.50;1.57;;;;;;;22.56;34.68;98215.97;1684431;84;21510;-64
2021/06/05 08:46:28;;;;;;;2.72;1.10;;;;;;;22.91;34.23;98230.94;1684431;84;21109;-63
2021/06/05 08:48:59;;;;;;;1.77;0.90;;;;;;;23.14;34.04;98220.58;1684444;85;21057;-63
2021/06/05 08:51:40;;;;;;;2.50;1.02;;;;;;;23.26;31.56;98219.36;1684342;85;21538;-63
2021/06/05 08:54:42;;;;;;;2.45;1.37;;;;;;;23.44;34.46;98219.42;1683569;84;21050;-63
2021/06/05 08:57:27;;;;;;;1.15;0.82;;;;;;;23.67;34.60;98215.63;1684284;85;21007;-63
2021/06/05 08:59:56;;;;;;;1.60;0.90;;;;;;;23.87;31.02;98214.09;1684243;85;21029;-63
2021/06/05 09:02:26;;;;;;;2.42;1.17;;;;;;;24.06;33.12;98206.41;1683882;85;21554;-64
2021/06/05 09:04:55;;;;;;;1.22;1.10;;;;;;;24.11;30.37;98208.70;1684526;84;21534;-63
2021/06/05 09:07:24;;;;;;;1.92;1.00;;;;;;;24.18;28.68;98209.97;1684157;84;21098;-63
2021/06/05 09:09:53;;;;;;;1.10;0.80;;;;;;;24.25;28.34;98211.20;1684519;85;21065;-63
2021/06/05 09:12:20;;;;;;;0.80;0.75;;;;;;;24.39;33.27;98210.84;1684259;85;21034;-62
2021/06/05 09:14:52;;;;;;;1.00;0.70;;;;;;;24.48;29.63;98207.33;1684456;85;20995;-63
2021/06/05 09:17:31;;;;;;;1.95;0.88;;;;;;;24.57;31.37;98209.45;1668089;85;21095;-62
2021/06/05 09:20:22;;;;;;;1.25;1.07;;;;;;;24.67;31.74;98202.25;1671233;85;20987;-62
2021/06/05 09:22:49;;;;;;;2.50;0.90;;;;;;;24.75;30.87;98203.26;1681286;85;21170;-62
2021/06/05 09:25:39;;;;;;;1.25;0.70;;;;;;;24.88;30.60;98202.28;1681518;85;21034;-62
2021/06/05 09:28:29;;;;;;;0.98;0.80;;;;;;;25.02;28.27;98200.52;1681383;85;21054;-63
2021/06/05 09:31:17;;;;;;;1.62;0.70;;;;;;;25.14;30.00;98191.23;1680970;85;21074;-63
2021/06/05 09:33:45;;;;;;;1.92;0.98;;;;;;;25.27;28.12;98190.20;1681351;85;21046;-62
2021/06/05 09:36:23;;;;;;;1.77;0.90;;;;;;;25.51;26.71;98179.86;1681117;85;21062;-63
2021/06/05 09:38:58;;;;;;;2.60;1.00;;;;;;;25.72;27.75;98177.16;1681415;85;21882;-63
2021/06/05 09:41:39;;;;;;;1.90;1.03;;;;;;;25.89;28.24;98175.37;1681532;85;21053;-63
2021/06/05 09:44:23;;;;;;;2.80;1.20;;;;;;;25.94;24.08;98168.30;1681529;85;21042;-63
2021/06/05 09:47:13;;;;;;;0.98;0.80;;;;;;;25.88;24.56;98171.08;1681388;85;21050;-63
2021/06/05 09:49:49;;;;;;;1.37;0.90;;;;;;;25.45;25.39;98155.52;1679384;85;21047;-63
2021/06/05 09:52:33;;;;;;;5.22;1.80;;;;;;;25.43;26.95;98138.48;1669082;84;21525;-65
2021/06/05 09:55:18;;;;;;;4.35;3.12;;;;;;;25.73;23.43;98154.81;1675785;85;21189;-67
2021/06/05 09:57:50;;;;;;;3.35;1.80;;;;;;;26.16;23.58;98156.48;1674201;85;21566;-66
2021/06/05 10:00:34;;;;;;;4.00;2.02;;;;;;;26.23;23.25;98158.50;1676184;86;21120;-65
2021/06/05 10:03:33;;;;;;;2.40;1.37;;;;;;;26.74;22.67;98152.73;1676487;86;20998;-65
2021/06/05 10:06:08;;;;;;;1.90;1.30;;;;;;;27.14;22.75;98153.42;1676395;86;21122;-64
2021/06/05 10:08:41;;;;;;;2.85;1.52;;;;;;;27.52;22.73;98145.98;1671514;86;20975;-64
2021/06/05 10:11:22;;;;;;;1.70;1.25;;;;;;;27.29;21.50;98150.97;1676256;86;21583;-64
2021/06/05 10:14:07;;;;;;;3.75;0.93;;;;;;;27.03;22.53;98140.19;1676192;86;21058;-64
2021/06/05 10:16:37;;;;;;;1.60;0.90;;;;;;;27.56;21.99;98147.11;1676557;86;21195;-65
2021/06/05 10:19:12;;;;;;;1.25;0.93;;;;;;;27.74;21.86;98143.34;1705094;83;21053;-65
2021/06/05 10:21:43;;;;;;;2.47;1.00;;;;;;;28.87;25.17;98142.95;1702836;83;21490;-64
2021/06/05 10:24:33;;;;;;;1.57;1.10;;;;;;;29.26;22.30;98131.45;1705011;83;21507;-64
2021/06/05 10:27:08;;;;;;;1.42;1.02;;;;;;;29.98;19.96;98131.58;1689593;82;21503;-65
2021/06/05 10:29:51;;;;;;;1.60;0.88;;;;;;;30.05;20.02;98122.22;1699354;83;21549;-74
2021/06/05 10:32:42;;;;;;;3.80;1.20;;;;;;;30.44;20.05;98123.94;1702030;83;21050;-74
2021/06/05 10:35:29;;;;;;;1.75;1.07;;;;;;;30.41;18.93;98118.27;1665066;86;21066;-71
2021/06/05 10:38:17;;;;;;;1.27;1.17;;;;;;;29.97;19.30;98115.23;1665176;84;21062;-73
2021/06/05 10:40:47;;;;;;;1.32;1.00;;;;;;;30.33;21.10;98110.23;1642348;86;21104;-74
2021/06/05 10:43:15;;;;;;;1.37;0.85;;;;;;;31.07;21.09;98108.41;1635064;88;21065;-73
2021/06/05 10:45:47;;;;;;;1.47;1.05;;;;;;;31.52;20.31;98101.56;1634653;88;21054;-72
2021/06/05 10:48:34;;;;;;;3.22;1.25;;;;;;;31.30;20.37;98092.25;1634169;87;21620;-68
2021/06/05 10:51:08;;;;;;;25.40;16.48;;;;;;;31.44;19.61;98087.90;1634441;86;21598;-67
2021/06/05 10:53:43;;;;;;;7.37;5.42;;;;;;;32.07;18.97;98084.98;1665113;86;21018;-64
2021/06/05 10:56:21;;;;;;;1.82;1.50;;;;;;;32.51;19.02;98086.83;1664906;85;21058;-64
2021/06/05 10:58:52;;;;;;;2.00;1.32;;;;;;;32.69;19.65;98088.84;1664967;86;21545;-64
2021/06/05 11:01:33;;;;;;;4.15;1.60;;;;;;;32.15;17.82;98091.64;1664990;86;21179;-66
2021/06/05 11:04:07;;;;;;;1.47;1.15;;;;;;;32.36;17.37;98087.22;1664818;85;21141;-64
2021/06/05 11:06:49;;;;;;;2.47;1.20;;;;;;;32.04;17.43;98090.88;1661499;84;21050;-64
2021/06/05 11:09:30;;;;;;;5.45;1.40;;;;;;;31.45;17.18;98084.95;1689145;82;21113;-63
2021/06/05 11:12:04;;;;;;;49.77;31.97;;;;;;;30.45;19.25;98073.30;1696122;83;21553;-64
2021/06/05 11:14:43;;;;;;;16.60;10.75;;;;;;;32.05;20.61;98066.98;1693116;85;21042;-62
2021/06/05 11:17:38;;;;;;;4.97;1.62;;;;;;;32.05;20.61;98066.98;1692679;85;21049;-67
2021/06/05 11:20:10;;;;;;;2.02;1.27;;;;;;;32.35;18.91;98077.54;1693049;83;21137;-67
2021/06/05 11:23:00;;;;;;;1.50;1.15;;;;;;;30.89;20.28;98066.84;1690253;84;21073;-66
2021/06/05 11:25:46;;;;;;;2.47;1.55;;;;;;;30.10;20.33;98070.02;1661805;85;21074;-66
2021/06/05 11:28:41;;;;;;;2.20;1.30;;;;;;;30.09;22.55;98064.38;1657930;85;21222;-66
2021/06/05 11:31:48;;;;;;;1.85;1.17;;;;;;;30.55;21.29;98067.92;1661351;86;21562;-67
2021/06/05 11:34:45;;;;;;;2.98;1.10;;;;;;;30.79;20.63;98072.20;1693154;85;21121;-67
2021/06/05 11:37:23;;;;;;;2.85;1.22;;;;;;;30.04;20.52;98071.06;1693148;84;21081;-67
2021/06/05 11:40:01;;;;;;;3.05;1.47;;;;;;;29.03;21.64;98071.94;1692871;84;21089;-66
2021/06/05 11:42:45;;;;;;;4.40;1.12;;;;;;;28.51;22.82;98072.34;1693008;84;21601;-66
2021/06/05 11:45:33;;;;;;;1.52;1.10;;;;;;;28.97;22.60;98069.50;1692731;84;21066;-66
2021/06/05 11:47:59;;;;;;;2.47;1.15;;;;;;;29.10;23.05;98065.04;1693078;85;21056;-61
2021/06/05 11:50:33;;;;;;;1.95;1.10;;;;;;;29.23;23.06;98064.56;1692941;83;21046;-63
2021/06/05 11:53:31;;;;;;;3.33;1.25;;;;;;;29.19;22.95;98062.94;1692990;83;21029;-62
2021/06/05 11:56:07;;;;;;;3.17;1.12;;;;;;;29.14;23.09;98063.46;1692366;85;21538;-61
2021/06/05 11:58:37;;;;;;;1.82;1.00;;;;;;;29.14;22.34;98050.09;1693015;83;21094;-62
2021/06/05 12:01:11;;;;;;;1.47;0.90;;;;;;;29.10;22.74;98056.49;1693123;83;21580;-63
2021/06/05 12:04:02;;;;;;;1.50;1.12;;;;;;;28.97;22.46;98056.94;1693115;84;21037;-66